テルアビブ / ベン・グリオン の空港の天気 - METARとTAF

ベン・グリオン国際空港(テルアビブ) ( LLBG / TLV ) - イスラエル ロード / テルアビブ
飛行場実況気象(Metar)
観測時間10/18 06:50 IDT (10/18 03:50 UTC)
風向・風速不定 2m/s
視程10km以上
天気現象
少しの雲 雲底高度 730m
全天の4割程度の雲 雲底高度 1040m
気温23℃
湿度78%
気圧1012hPa
METARLLBG 180350Z VRB03KT 9999 FEW024CB SCT034 23/19 Q1012 NOSIG
過去の天気等 Google飛行場航空写真 Wunderground天気予報

過去48時間のMETAR

飛行場予報(TAF)
発表時間: 10/18 02:26 IDT (10/17 23:26 UTC)
予報対象時間: 18日3時 IDT ~ 19日3時 IDT
風向・風速不定 2m/s
視程10km以上
全天の4割程度の雲 雲底高度 760m
18日3時 IDT ~ 18日6時 IDT に一時的に
風向・風速南南東 3m/s
全天の8割程度の雲 雲底高度 670m
18日6時 IDT から 確率 30% で
風向・風速南 3m/s
天気現象
少しの塔状積雲 雲底高度 610m
全天の8割程度の雲 雲底高度 670m
18日10時 IDT ~ 18日12時 IDT に徐々に
風向・風速北西 5m/s
全天の4割程度の雲 雲底高度 910m
18日19時 IDT ~ 18日21時 IDT に徐々に
風向・風速不定 2m/s
全天の4割程度の雲 雲底高度 760m
TAF LLBG 172326Z 1800/1824 VRB03KT 9999 SCT025
TEMPO 1800/1803 15005KT BKN022
PROB30 1803/1807 18005KT RA FEW020TCU BKN022
BECMG 1807/1809 31010KT SCT030
BECMG 1816/1818 VRB04KT SCT025 TX28/1811Z TN22/1804Z